Time;durP1;ratioP1;P1;durP2;ratioP2;P2;SDS_P1;SDS_P2;PMS_P1;PMS_P2;Temp;Humidity;BMP_temperature;BMP_pressure;BME280_temperature;BME280_humidity;BME280_pressure;Samples;Min_cycle;Max_cycle;Signal;HPM_P1;HPM_P2
2022/03/08 00:02:23;;;;;;;11.00;5.50;;;;;;;;;;5047165;28;21403;-65
2022/03/08 00:04:50;;;;;;;14.17;5.73;;;;;;;;;;5046772;28;20564;-65
2022/03/08 00:07:17;;;;;;;15.53;6.50;;;;;;;;;;5043388;28;20438;-66
2022/03/08 00:09:44;;;;;;;15.40;6.27;;;;;;;;;;5032162;28;20438;-65
2022/03/08 00:12:11;;;;;;;18.80;6.23;;;;;;;;;;5028769;28;20837;-65
2022/03/08 00:14:37;;;;;;;17.03;7.20;;;;;;;;;;5040494;28;20854;-65
2022/03/08 00:17:04;;;;;;;17.27;6.83;;;;;;;;;;5038616;28;20874;-65
2022/03/08 00:19:30;;;;;;;17.83;7.63;;;;;;;;;;5039420;28;20437;-65
2022/03/08 00:21:57;;;;;;;16.30;7.77;;;;;;;;;;5036781;28;20457;-65
2022/03/08 00:24:24;;;;;;;16.67;7.83;;;;;;;;;;5029939;28;20441;-65
2022/03/08 00:26:50;;;;;;;15.53;7.07;;;;;;;;;;5047840;28;20456;-65
2022/03/08 00:29:17;;;;;;;17.13;7.53;;;;;;;;;;5033968;28;20448;-65
2022/03/08 00:31:44;;;;;;;16.83;7.20;;;;;;;;;;5042551;28;20453;-65
2022/03/08 00:34:11;;;;;;;16.33;7.63;;;;;;;;;;5045380;28;20469;-65
2022/03/08 00:36:38;;;;;;;16.47;6.93;;;;;;;;;;5028945;28;20434;-65
2022/03/08 00:39:04;;;;;;;17.47;7.30;;;;;;;;;;5042687;28;20529;-65
2022/03/08 00:41:32;;;;;;;15.30;6.73;;;;;;;;;;5043677;28;20597;-65
2022/03/08 00:43:58;;;;;;;18.47;7.70;;;;;;;;;;5035556;28;21003;-65
2022/03/08 00:46:26;;;;;;;14.37;6.57;;;;;;;;;;5047473;28;20482;-66
2022/03/08 00:48:53;;;;;;;12.20;6.73;;;;;;;;;;5047253;28;20544;-66
2022/03/08 00:51:19;;;;;;;13.60;6.37;;;;;;;;;;5046355;28;20469;-66
2022/03/08 00:53:48;;;;;;;13.10;6.03;;;;;;;;;;5067016;28;20816;-66
2022/03/08 00:56:15;;;;;;;14.83;6.60;;;;;;;;;;5047192;28;20450;-66
2022/03/08 00:58:41;;;;;;;15.00;6.43;;;;;;;;;;5063062;28;20519;-66
2022/03/08 01:01:08;;;;;;;17.97;5.77;;;;;;;;;;5049919;28;20871;-66
2022/03/08 01:03:35;;;;;;;16.47;6.27;;;;;;;;;;5032307;28;20442;-66
2022/03/08 01:39:11;;;;;;;12.03;5.07;;;;;;;;;;4834744;28;20565;-66
2022/03/08 01:41:38;;;;;;;11.10;5.27;;;;;;;;;;5048283;28;20476;-66
2022/03/08 01:44:05;;;;;;;13.67;5.23;;;;;;;;;;5064557;28;20445;-66
2022/03/08 01:46:31;;;;;;;12.53;4.97;;;;;;;;;;5049515;28;20476;-66
2022/03/08 01:48:58;;;;;;;12.93;6.30;;;;;;;;;;5041918;28;20488;-66
2022/03/08 01:51:25;;;;;;;9.30;4.30;;;;;;;;;;5029472;28;20444;-66
2022/03/08 01:53:51;;;;;;;10.87;4.40;;;;;;;;;;5061735;28;20945;-66
2022/03/08 01:56:18;;;;;;;10.90;4.90;;;;;;;;;;5046875;28;20438;-66
2022/03/08 01:58:45;;;;;;;11.87;4.47;;;;;;;;;;5032260;28;20438;-66
2022/03/08 02:01:11;;;;;;;8.63;4.03;;;;;;;;;;5064134;28;20584;-66
2022/03/08 02:03:38;;;;;;;11.43;4.10;;;;;;;;;;5065377;28;20473;-66
2022/03/08 02:06:05;;;;;;;13.77;5.23;;;;;;;;;;5050430;28;20524;-66
2022/03/08 02:08:32;;;;;;;16.27;4.87;;;;;;;;;;5038661;28;20500;-66
2022/03/08 02:10:58;;;;;;;10.87;4.60;;;;;;;;;;5032292;28;20443;-66
2022/03/08 02:13:25;;;;;;;12.57;4.30;;;;;;;;;;5030202;28;20431;-66
2022/03/08 02:15:52;;;;;;;11.87;4.90;;;;;;;;;;5036621;28;20441;-66
2022/03/08 02:18:19;;;;;;;14.93;6.20;;;;;;;;;;5065000;28;20447;-66
2022/03/08 02:20:46;;;;;;;14.27;5.67;;;;;;;;;;5036439;28;20474;-66
2022/03/08 02:23:13;;;;;;;9.93;5.20;;;;;;;;;;5046381;28;20437;-65
2022/03/08 02:25:39;;;;;;;13.97;5.53;;;;;;;;;;5044451;28;20446;-65
2022/03/08 02:28:06;;;;;;;11.77;5.27;;;;;;;;;;5030674;28;20436;-65
2022/03/08 02:30:33;;;;;;;8.47;4.60;;;;;;;;;;5030003;28;20445;-65
2022/03/08 02:33:00;;;;;;;11.70;4.80;;;;;;;;;;5038539;28;20495;-65
2022/03/08 02:35:27;;;;;;;10.03;4.93;;;;;;;;;;5049527;28;20488;-66
2022/03/08 02:37:55;;;;;;;8.87;4.30;;;;;;;;;;5038769;28;20472;-66
2022/03/08 02:40:22;;;;;;;9.97;4.60;;;;;;;;;;5029654;28;20528;-66
2022/03/08 02:42:49;;;;;;;12.07;5.37;;;;;;;;;;5036280;28;20495;-66
2022/03/08 02:45:17;;;;;;;10.50;5.37;;;;;;;;;;5047425;28;20446;-66
2022/03/08 02:47:43;;;;;;;12.87;5.10;;;;;;;;;;5046546;28;20441;-66
2022/03/08 02:50:10;;;;;;;11.60;6.00;;;;;;;;;;5055960;28;20438;-66
2022/03/08 02:52:38;;;;;;;10.27;5.30;;;;;;;;;;5037987;28;20449;-66
2022/03/08 02:55:05;;;;;;;12.10;6.13;;;;;;;;;;5044856;28;20829;-66
2022/03/08 02:57:31;;;;;;;11.57;5.60;;;;;;;;;;5031670;28;20460;-66
2022/03/08 02:59:58;;;;;;;11.90;5.77;;;;;;;;;;5035395;28;20454;-65
2022/03/08 03:02:25;;;;;;;10.63;5.07;;;;;;;;;;5030152;28;20496;-66
2022/03/08 03:04:51;;;;;;;11.33;5.10;;;;;;;;;;5030200;28;20949;-66
2022/03/08 03:07:18;;;;;;;10.47;5.10;;;;;;;;;;5034333;28;20864;-66
2022/03/08 03:09:45;;;;;;;12.93;6.20;;;;;;;;;;5062969;28;20433;-66
2022/03/08 03:12:11;;;;;;;11.87;5.67;;;;;;;;;;5060489;28;21067;-66
2022/03/08 03:14:38;;;;;;;14.40;7.17;;;;;;;;;;5044102;28;20452;-66
2022/03/08 03:17:05;;;;;;;8.70;4.87;;;;;;;;;;5040532;28;20434;-65
2022/03/08 03:19:32;;;;;;;15.67;5.90;;;;;;;;;;5030666;28;20967;-65
2022/03/08 03:21:59;;;;;;;13.13;4.83;;;;;;;;;;5047386;28;20476;-65
2022/03/08 03:24:26;;;;;;;12.40;5.07;;;;;;;;;;5040155;28;20944;-65
2022/03/08 03:26:52;;;;;;;11.60;5.40;;;;;;;;;;5044433;28;20440;-65
2022/03/08 03:29:19;;;;;;;11.80;5.20;;;;;;;;;;5044821;28;20470;-65
2022/03/08 03:31:46;;;;;;;13.23;5.20;;;;;;;;;;5056707;28;20441;-65
2022/03/08 03:34:12;;;;;;;12.67;5.07;;;;;;;;;;5036533;28;20457;-65
2022/03/08 03:36:39;;;;;;;12.77;5.00;;;;;;;;;;5029185;28;20468;-65
2022/03/08 03:39:06;;;;;;;11.93;4.80;;;;;;;;;;5038248;28;20457;-65
2022/03/08 03:41:32;;;;;;;14.83;5.93;;;;;;;;;;5047492;28;20867;-65
2022/03/08 03:43:59;;;;;;;13.30;5.40;;;;;;;;;;5058539;28;20445;-65
2022/03/08 03:46:26;;;;;;;15.67;5.97;;;;;;;;;;5047316;28;21010;-65
2022/03/08 03:48:52;;;;;;;10.53;5.27;;;;;;;;;;5040416;28;20439;-65
2022/03/08 03:51:19;;;;;;;12.50;5.17;;;;;;;;;;5044110;28;20496;-65
2022/03/08 03:53:46;;;;;;;12.37;4.67;;;;;;;;;;5044179;28;20860;-65
2022/03/08 03:56:13;;;;;;;9.53;4.63;;;;;;;;;;5029583;28;20840;-65
2022/03/08 03:58:39;;;;;;;7.00;4.20;;;;;;;;;;5030725;28;20440;-65
2022/03/08 04:01:06;;;;;;;8.73;4.40;;;;;;;;;;5047482;28;20488;-65
2022/03/08 04:03:33;;;;;;;11.70;4.90;;;;;;;;;;5028884;28;20937;-65
2022/03/08 04:06:00;;;;;;;10.87;5.20;;;;;;;;;;5027044;28;20904;-65
2022/03/08 04:08:27;;;;;;;11.80;4.90;;;;;;;;;;5036701;28;20982;-65
2022/03/08 04:10:54;;;;;;;11.17;4.63;;;;;;;;;;5042730;28;20960;-65
2022/03/08 04:13:21;;;;;;;11.87;5.23;;;;;;;;;;5046623;28;20445;-65
2022/03/08 04:15:47;;;;;;;10.27;5.13;;;;;;;;;;5040963;28;20438;-65
2022/03/08 04:18:14;;;;;;;9.87;4.43;;;;;;;;;;5028244;28;20443;-65
2022/03/08 04:20:41;;;;;;;8.97;4.33;;;;;;;;;;5034742;28;20511;-65
2022/03/08 04:23:08;;;;;;;9.03;4.13;;;;;;;;;;5046212;28;20541;-65
2022/03/08 04:25:34;;;;;;;11.17;4.77;;;;;;;;;;5043818;28;20506;-65
2022/03/08 04:28:02;;;;;;;8.40;4.47;;;;;;;;;;5029132;28;20446;-65
2022/03/08 04:30:28;;;;;;;9.90;4.53;;;;;;;;;;5034446;28;20792;-65
2022/03/08 04:32:55;;;;;;;10.87;4.80;;;;;;;;;;5047780;28;20445;-65
2022/03/08 04:35:21;;;;;;;10.23;4.30;;;;;;;;;;5046515;28;20437;-65
2022/03/08 04:37:48;;;;;;;9.73;4.40;;;;;;;;;;5048170;28;20444;-66
2022/03/08 04:40:15;;;;;;;9.87;4.77;;;;;;;;;;5028472;28;20478;-66
2022/03/08 04:42:42;;;;;;;10.57;5.00;;;;;;;;;;5027914;28;20442;-66
2022/03/08 04:45:09;;;;;;;12.13;5.50;;;;;;;;;;5027664;28;20433;-66
2022/03/08 04:47:35;;;;;;;11.50;5.60;;;;;;;;;;5047191;28;20944;-66
2022/03/08 04:50:09;;;;;;;11.40;5.50;;;;;;;;;;5044723;28;20996;-66
2022/03/08 04:52:37;;;;;;;18.60;7.60;;;;;;;;;;5048650;28;20936;-65
2022/03/08 04:55:04;;;;;;;13.07;6.43;;;;;;;;;;5035357;28;20512;-66
2022/03/08 04:57:31;;;;;;;15.40;7.30;;;;;;;;;;5028195;28;20892;-65
2022/03/08 04:59:57;;;;;;;13.63;6.40;;;;;;;;;;5043308;28;20506;-65
2022/03/08 05:02:26;;;;;;;10.00;5.10;;;;;;;;;;5045934;28;20485;-66
2022/03/08 05:04:53;;;;;;;12.07;6.37;;;;;;;;;;5041073;28;20448;-66
2022/03/08 05:07:19;;;;;;;10.10;6.03;;;;;;;;;;5042135;28;20434;-69
2022/03/08 05:09:46;;;;;;;15.60;6.53;;;;;;;;;;5041140;28;20506;-67
2022/03/08 05:12:13;;;;;;;13.77;6.77;;;;;;;;;;5023356;28;20448;-66
2022/03/08 05:14:40;;;;;;;14.07;6.30;;;;;;;;;;5041426;28;21219;-68
2022/03/08 05:17:06;;;;;;;12.40;5.93;;;;;;;;;;5039746;28;20445;-66
2022/03/08 05:19:33;;;;;;;13.23;6.73;;;;;;;;;;5023850;28;20466;-68
2022/03/08 05:22:00;;;;;;;17.73;6.67;;;;;;;;;;5038691;28;20483;-66
2022/03/08 05:24:27;;;;;;;15.07;6.60;;;;;;;;;;5040539;28;20433;-67
2022/03/08 05:26:54;;;;;;;14.03;6.40;;;;;;;;;;5041056;28;20876;-67
2022/03/08 05:29:20;;;;;;;14.37;6.30;;;;;;;;;;5040644;28;20432;-68
2022/03/08 05:31:48;;;;;;;14.23;5.80;;;;;;;;;;5040716;28;20547;-68
2022/03/08 05:34:15;;;;;;;14.10;5.97;;;;;;;;;;5040179;28;20437;-68
2022/03/08 05:36:42;;;;;;;17.13;6.40;;;;;;;;;;5040787;28;20481;-67
2022/03/08 05:39:09;;;;;;;14.60;6.77;;;;;;;;;;5044462;28;20453;-67
2022/03/08 05:41:36;;;;;;;13.13;5.77;;;;;;;;;;5048866;28;20904;-68
2022/03/08 05:44:03;;;;;;;15.63;6.57;;;;;;;;;;5043192;28;20444;-67
2022/03/08 05:46:31;;;;;;;12.10;6.40;;;;;;;;;;5042532;28;20466;-71
2022/03/08 05:48:58;;;;;;;13.40;6.70;;;;;;;;;;5043488;28;20456;-69
2022/03/08 05:51:25;;;;;;;12.07;6.37;;;;;;;;;;5039867;28;20588;-66
2022/03/08 05:53:51;;;;;;;14.37;6.50;;;;;;;;;;5035489;28;20479;-66
2022/03/08 05:56:18;;;;;;;17.13;7.33;;;;;;;;;;5064640;28;20449;-66
2022/03/08 05:58:44;;;;;;;14.47;6.27;;;;;;;;;;5042078;28;20462;-66
2022/03/08 06:01:11;;;;;;;17.43;6.87;;;;;;;;;;5039183;28;20568;-67
2022/03/08 06:03:38;;;;;;;14.43;7.37;;;;;;;;;;5029492;28;20445;-67
2022/03/08 06:06:05;;;;;;;11.83;6.20;;;;;;;;;;5029818;28;20844;-66
2022/03/08 06:08:31;;;;;;;10.70;6.03;;;;;;;;;;5029724;28;20957;-67
2022/03/08 06:10:58;;;;;;;14.83;6.53;;;;;;;;;;5037923;28;20442;-66
2022/03/08 06:13:25;;;;;;;12.73;6.40;;;;;;;;;;5065758;28;20426;-67
2022/03/08 06:15:51;;;;;;;13.47;6.13;;;;;;;;;;5050429;28;20464;-66
2022/03/08 06:18:18;;;;;;;11.37;5.90;;;;;;;;;;5039967;28;20437;-66
2022/03/08 06:20:49;;;;;;;15.20;8.00;;;;;;;;;;5049569;28;20533;-67
2022/03/08 06:23:15;;;;;;;13.37;7.53;;;;;;;;;;5061879;28;20931;-66
2022/03/08 06:25:42;;;;;;;13.00;6.77;;;;;;;;;;5056153;28;20447;-67
2022/03/08 06:28:09;;;;;;;10.90;6.30;;;;;;;;;;5068807;28;20440;-67
2022/03/08 06:30:36;;;;;;;15.80;7.50;;;;;;;;;;5058661;28;20430;-67
2022/03/08 06:33:04;;;;;;;14.10;8.20;;;;;;;;;;5047388;28;20442;-66
2022/03/08 06:35:32;;;;;;;19.60;7.83;;;;;;;;;;5030021;28;20917;-67
2022/03/08 06:37:58;;;;;;;18.67;9.00;;;;;;;;;;5041243;28;20446;-67
2022/03/08 06:40:25;;;;;;;28.60;12.00;;;;;;;;;;5039868;28;20541;-67
2022/03/08 06:42:52;;;;;;;29.67;12.17;;;;;;;;;;5029817;28;20913;-68
2022/03/08 06:45:18;;;;;;;32.70;14.30;;;;;;;;;;5030074;28;20430;-68
2022/03/08 06:47:46;;;;;;;29.10;12.80;;;;;;;;;;5028914;28;20434;-68
2022/03/08 06:50:12;;;;;;;28.13;11.60;;;;;;;;;;5029174;28;20472;-68
2022/03/08 06:52:39;;;;;;;23.83;11.77;;;;;;;;;;5030182;28;20437;-68
2022/03/08 06:55:06;;;;;;;20.27;10.87;;;;;;;;;;5029797;28;20422;-68
2022/03/08 06:57:33;;;;;;;20.50;11.00;;;;;;;;;;5028610;28;20474;-68
2022/03/08 07:00:00;;;;;;;22.07;10.03;;;;;;;;;;5030658;28;20417;-66
2022/03/08 07:02:27;;;;;;;19.70;10.03;;;;;;;;;;5041415;28;20476;-66
2022/03/08 07:04:54;;;;;;;23.17;10.53;;;;;;;;;;5042246;28;20491;-67
2022/03/08 07:07:20;;;;;;;23.53;10.07;;;;;;;;;;5043664;28;20469;-66
2022/03/08 07:09:47;;;;;;;17.97;9.40;;;;;;;;;;5043743;28;20425;-66
2022/03/08 07:12:14;;;;;;;18.40;9.50;;;;;;;;;;5042148;28;20544;-64
2022/03/08 07:14:41;;;;;;;20.10;9.43;;;;;;;;;;5042875;28;20430;-66
2022/03/08 07:17:08;;;;;;;22.93;10.43;;;;;;;;;;5043189;28;20443;-65
2022/03/08 07:19:34;;;;;;;19.73;9.30;;;;;;;;;;5041468;28;20425;-67
2022/03/08 07:22:01;;;;;;;28.73;13.97;;;;;;;;;;5040036;28;20253;-66
2022/03/08 07:24:28;;;;;;;66.57;31.10;;;;;;;;;;5040727;28;20195;-68
2022/03/08 07:26:55;;;;;;;42.33;23.40;;;;;;;;;;5042144;28;20211;-64
2022/03/08 07:29:22;;;;;;;18.50;11.53;;;;;;;;;;5042623;28;20191;-65
2022/03/08 07:31:48;;;;;;;15.27;9.00;;;;;;;;;;5042156;28;20281;-65
2022/03/08 07:34:15;;;;;;;12.77;8.30;;;;;;;;;;5042832;28;20201;-64
2022/03/08 07:36:42;;;;;;;13.13;7.37;;;;;;;;;;5042855;28;20269;-66
2022/03/08 07:39:09;;;;;;;13.37;7.67;;;;;;;;;;5043213;28;20203;-66
2022/03/08 07:41:35;;;;;;;13.00;7.53;;;;;;;;;;5043168;28;20206;-66
2022/03/08 07:44:03;;;;;;;13.93;7.13;;;;;;;;;;5043263;28;20194;-65
2022/03/08 07:46:30;;;;;;;12.13;6.93;;;;;;;;;;5042963;28;20198;-66
2022/03/08 07:48:57;;;;;;;12.53;7.30;;;;;;;;;;5041252;28;20749;-65
2022/03/08 07:51:43;;;;;;;11.40;6.07;;;;;;;;;;5040041;28;20187;-67
2022/03/08 07:54:10;;;;;;;15.37;8.33;;;;;;;;;;5042871;28;20676;-66
2022/03/08 07:56:39;;;;;;;14.20;7.63;;;;;;;;;;5043301;28;20676;-66
2022/03/08 07:59:05;;;;;;;11.33;6.37;;;;;;;;;;5041257;28;20190;-66
2022/03/08 08:01:32;;;;;;;14.67;6.97;;;;;;;;;;5041472;28;20205;-66
2022/03/08 08:03:59;;;;;;;15.47;6.90;;;;;;;;;;5040185;28;20203;-65
2022/03/08 08:06:26;;;;;;;11.27;6.10;;;;;;;;;;5042959;28;20787;-65
2022/03/08 08:08:52;;;;;;;12.27;6.47;;;;;;;;;;5043374;28;20190;-65
2022/03/08 08:11:20;;;;;;;10.57;5.93;;;;;;;;;;5041587;28;20222;-65
2022/03/08 08:13:48;;;;;;;8.67;5.03;;;;;;;;;;5042679;28;20577;-68
2022/03/08 08:16:16;;;;;;;8.93;4.73;;;;;;;;;;5042454;28;20302;-67
2022/03/08 08:18:43;;;;;;;9.93;4.83;;;;;;;;;;5042135;28;20193;-65
2022/03/08 08:21:10;;;;;;;9.20;4.90;;;;;;;;;;5041435;28;20190;-66
2022/03/08 08:23:37;;;;;;;10.03;4.37;;;;;;;;;;5041618;28;20218;-65
2022/03/08 08:26:04;;;;;;;7.90;4.30;;;;;;;;;;5040535;28;20198;-65
2022/03/08 08:28:30;;;;;;;9.00;4.30;;;;;;;;;;5042678;28;20191;-66
2022/03/08 08:30:58;;;;;;;9.53;5.57;;;;;;;;;;5047510;28;20249;-64
2022/03/08 08:33:25;;;;;;;7.80;4.53;;;;;;;;;;5045667;28;20206;-64
2022/03/08 08:35:52;;;;;;;8.97;4.13;;;;;;;;;;5027278;28;20194;-65
2022/03/08 08:38:19;;;;;;;5.93;3.57;;;;;;;;;;5041606;28;20198;-65
2022/03/08 08:40:46;;;;;;;7.23;4.03;;;;;;;;;;5041843;28;20234;-66
2022/03/08 08:43:13;;;;;;;6.47;3.73;;;;;;;;;;5041970;28;20384;-66
2022/03/08 08:45:39;;;;;;;7.43;4.47;;;;;;;;;;5041418;28;20187;-66
2022/03/08 08:48:07;;;;;;;7.57;4.40;;;;;;;;;;5040058;28;20543;-67
2022/03/08 08:50:35;;;;;;;7.47;2.57;;;;;;;;;;5040323;28;20183;-66
2022/03/08 08:53:02;;;;;;;6.13;2.90;;;;;;;;;;5040035;28;20207;-67
2022/03/08 08:55:29;;;;;;;6.57;3.37;;;;;;;;;;5040500;28;20191;-65
2022/03/08 08:57:56;;;;;;;6.50;3.77;;;;;;;;;;5041681;28;20190;-65
2022/03/08 09:00:22;;;;;;;6.10;3.33;;;;;;;;;;5039785;28;20593;-65
2022/03/08 09:02:49;;;;;;;4.87;3.03;;;;;;;;;;5041099;28;20298;-66
2022/03/08 09:05:16;;;;;;;5.70;3.00;;;;;;;;;;5040628;28;20781;-67
2022/03/08 09:07:43;;;;;;;6.30;3.00;;;;;;;;;;5037651;28;20624;-65
2022/03/08 09:10:11;;;;;;;6.73;3.23;;;;;;;;;;5038170;28;20271;-67
2022/03/08 09:12:38;;;;;;;6.57;2.57;;;;;;;;;;5043484;28;20183;-66
2022/03/08 09:15:05;;;;;;;5.67;2.30;;;;;;;;;;5045201;28;20198;-66
2022/03/08 09:17:32;;;;;;;4.47;2.13;;;;;;;;;;5044551;28;20187;-67
2022/03/08 09:19:59;;;;;;;4.43;2.20;;;;;;;;;;5044541;28;20194;-68
2022/03/08 09:22:26;;;;;;;4.63;2.27;;;;;;;;;;5043646;28;20207;-71
2022/03/08 09:24:53;;;;;;;6.00;2.20;;;;;;;;;;5044823;28;20297;-69
2022/03/08 09:27:20;;;;;;;3.60;2.03;;;;;;;;;;5046108;28;20203;-71
2022/03/08 09:29:47;;;;;;;3.03;1.70;;;;;;;;;;5045802;28;20301;-68
2022/03/08 09:32:14;;;;;;;3.90;1.90;;;;;;;;;;5044319;28;20182;-71
2022/03/08 09:34:40;;;;;;;4.83;1.93;;;;;;;;;;5043295;28;20202;-68
2022/03/08 09:37:08;;;;;;;4.23;2.20;;;;;;;;;;5043211;28;20205;-67
2022/03/08 09:39:35;;;;;;;8.57;2.70;;;;;;;;;;5044410;28;20309;-67
2022/03/08 09:42:02;;;;;;;7.10;3.27;;;;;;;;;;5044342;28;20207;-69
2022/03/08 09:44:29;;;;;;;5.13;2.60;;;;;;;;;;5043876;28;20195;-68
2022/03/08 09:46:56;;;;;;;7.87;3.63;;;;;;;;;;5044136;28;20651;-67
2022/03/08 09:49:23;;;;;;;6.07;3.07;;;;;;;;;;5043758;28;20214;-69
2022/03/08 09:51:51;;;;;;;6.80;3.13;;;;;;;;;;5040890;28;20828;-69
2022/03/08 09:54:17;;;;;;;6.30;2.60;;;;;;;;;;5041918;28;20206;-68
2022/03/08 09:56:44;;;;;;;5.67;2.33;;;;;;;;;;5042214;28;20195;-67
2022/03/08 09:59:17;;;;;;;4.60;2.23;;;;;;;;;;5044418;28;20478;-66
2022/03/08 10:01:44;;;;;;;4.97;2.30;;;;;;;;;;5043421;28;20293;-68
2022/03/08 10:04:18;;;;;;;5.40;2.17;;;;;;;;;;5045686;28;20762;-71
2022/03/08 10:07:06;;;;;;;9.10;4.20;;;;;;;;;;5049787;28;20684;-71
2022/03/08 10:09:33;;;;;;;5.93;2.27;;;;;;;;;;5051035;28;20190;-71
2022/03/08 10:12:00;;;;;;;4.17;2.27;;;;;;;;;;5049858;28;20217;-71
2022/03/08 10:14:38;;;;;;;2.37;1.63;;;;;;;;;;5051124;28;20190;-71
2022/03/08 10:17:06;;;;;;;2.23;1.30;;;;;;;;;;5049700;28;20181;-72
2022/03/08 10:19:45;;;;;;;1.50;1.10;;;;;;;;;;5050710;28;20603;-71
2022/03/08 10:22:23;;;;;;;2.50;1.07;;;;;;;;;;5048881;28;20259;-71
2022/03/08 10:24:49;;;;;;;3.07;1.30;;;;;;;;;;5050847;28;20672;-72
2022/03/08 10:27:16;;;;;;;2.07;1.30;;;;;;;;;;5050881;28;20935;-72
2022/03/08 10:29:43;;;;;;;2.83;1.13;;;;;;;;;;5050544;28;20181;-73
2022/03/08 10:32:15;;;;;;;5.27;1.40;;;;;;;;;;5049458;28;20207;-71
2022/03/08 10:34:42;;;;;;;3.33;1.73;;;;;;;;;;5049097;28;20189;-71
2022/03/08 10:37:15;;;;;;;5.53;2.30;;;;;;;;;;5050752;28;20195;-72
2022/03/08 10:39:53;;;;;;;5.07;2.10;;;;;;;;;;5048851;28;20625;-73
2022/03/08 10:42:22;;;;;;;3.27;1.90;;;;;;;;;;5050369;28;20813;-72
2022/03/08 10:44:49;;;;;;;4.20;1.93;;;;;;;;;;5050641;28;20187;-72
2022/03/08 10:47:16;;;;;;;4.50;2.30;;;;;;;;;;5050395;28;20178;-72
2022/03/08 10:49:55;;;;;;;4.40;1.83;;;;;;;;;;5049964;28;20559;-73
2022/03/08 10:52:32;;;;;;;3.80;1.90;;;;;;;;;;5046075;28;20191;-68
2022/03/08 10:55:14;;;;;;;3.83;1.83;;;;;;;;;;5041448;28;20194;-68
2022/03/08 10:57:42;;;;;;;4.37;1.70;;;;;;;;;;5043595;28;20738;-67
2022/03/08 11:19:16;;;;;;;2.27;1.00;;;;;;;;;;5043144;28;20174;-67
2022/03/08 11:21:43;;;;;;;2.73;1.07;;;;;;;;;;5040911;28;20601;-67
2022/03/08 11:24:10;;;;;;;3.20;1.43;;;;;;;;;;5040334;28;20214;-68
2022/03/08 11:26:36;;;;;;;4.90;1.30;;;;;;;;;;5043486;28;20191;-68
2022/03/08 11:29:04;;;;;;;2.87;1.20;;;;;;;;;;5043125;28;20285;-66
2022/03/08 11:31:31;;;;;;;2.67;1.30;;;;;;;;;;5040303;28;20652;-66
2022/03/08 11:34:02;;;;;;;1.77;1.03;;;;;;;;;;5042006;28;20190;-67
2022/03/08 11:36:39;;;;;;;2.43;1.33;;;;;;;;;;5042239;28;20203;-67
2022/03/08 11:39:09;;;;;;;4.03;1.53;;;;;;;;;;5025251;28;20273;-68
2022/03/08 11:41:37;;;;;;;2.80;1.50;;;;;;;;;;5042635;28;20703;-67
2022/03/08 11:44:06;;;;;;;2.00;1.50;;;;;;;;;;5024858;28;20227;-74
2022/03/08 11:46:35;;;;;;;3.47;2.17;;;;;;;;;;5041403;28;20550;-67
2022/03/08 11:49:03;;;;;;;2.23;1.50;;;;;;;;;;5043376;28;20284;-69
2022/03/08 11:51:33;;;;;;;3.27;1.57;;;;;;;;;;5039963;28;20664;-65
2022/03/08 11:54:09;;;;;;;2.87;1.57;;;;;;;;;;5042541;28;20601;-65
2022/03/08 11:56:48;;;;;;;2.37;1.30;;;;;;;;;;5042547;28;20207;-66
2022/03/08 11:59:15;;;;;;;1.90;1.20;;;;;;;;;;5042081;28;20681;-66
2022/03/08 12:01:42;;;;;;;4.60;2.30;;;;;;;;;;5042097;28;20449;-68
2022/03/08 12:04:10;;;;;;;7.07;3.20;;;;;;;;;;5041164;28;20234;-65
2022/03/08 12:06:37;;;;;;;4.13;1.50;;;;;;;;;;5041439;28;20195;-66
2022/03/08 12:09:15;;;;;;;4.03;1.80;;;;;;;;;;5041823;28;20191;-67
2022/03/08 12:11:43;;;;;;;3.37;1.80;;;;;;;;;;5040226;28;20193;-66
2022/03/08 12:14:30;;;;;;;4.73;1.80;;;;;;;;;;5042031;28;20751;-66
2022/03/08 12:17:14;;;;;;;3.10;2.33;;;;;;;;;;5040935;28;20284;-65
2022/03/08 12:19:47;;;;;;;3.27;2.10;;;;;;;;;;5042183;28;20198;-67
2022/03/08 12:22:15;;;;;;;3.43;2.20;;;;;;;;;;5043035;28;20218;-65
2022/03/08 12:24:43;;;;;;;4.17;2.00;;;;;;;;;;5047930;28;20269;-65
2022/03/08 12:27:10;;;;;;;4.37;2.13;;;;;;;;;;5047111;28;20267;-65
2022/03/08 12:30:04;;;;;;;2.37;1.50;;;;;;;;;;5048581;28;20206;-66
2022/03/08 12:32:34;;;;;;;3.73;1.90;;;;;;;;;;5041237;28;20209;-68
2022/03/08 12:35:03;;;;;;;3.40;2.30;;;;;;;;;;5041085;28;20736;-67
2022/03/08 12:37:39;;;;;;;3.10;2.10;;;;;;;;;;5040531;28;20197;-67
2022/03/08 12:40:12;;;;;;;4.13;2.23;;;;;;;;;;5024101;28;20299;-67
2022/03/08 12:42:43;;;;;;;3.33;2.10;;;;;;;;;;5041306;28;21002;-67
2022/03/08 12:45:19;;;;;;;4.07;2.17;;;;;;;;;;5043282;28;20195;-67
2022/03/08 12:47:48;;;;;;;6.27;2.20;;;;;;;;;;5045014;28;20187;-67
2022/03/08 12:50:18;;;;;;;3.20;2.00;;;;;;;;;;5045005;28;20190;-67
2022/03/08 12:52:52;;;;;;;3.97;1.83;;;;;;;;;;5045319;28;20296;-67
2022/03/08 12:55:20;;;;;;;2.00;1.03;;;;;;;;;;5045861;28;20182;-67
2022/03/08 12:57:50;;;;;;;3.33;1.60;;;;;;;;;;5045102;28;20198;-67
2022/03/08 13:00:28;;;;;;;5.77;2.13;;;;;;;;;;5045681;28;20187;-68
2022/03/08 13:02:55;;;;;;;3.17;1.70;;;;;;;;;;5046566;28;20217;-67
2022/03/08 13:05:26;;;;;;;2.70;1.70;;;;;;;;;;5044531;28;20185;-68
2022/03/08 13:07:53;;;;;;;3.70;1.70;;;;;;;;;;5043891;28;20662;-68
2022/03/08 13:10:20;;;;;;;3.67;2.00;;;;;;;;;;5044245;28;20249;-68
2022/03/08 13:12:51;;;;;;;5.30;2.03;;;;;;;;;;5045165;28;20265;-67
2022/03/08 13:15:18;;;;;;;5.67;2.30;;;;;;;;;;5045909;28;20221;-68
2022/03/08 13:17:47;;;;;;;3.40;2.10;;;;;;;;;;5050717;28;20183;-72
2022/03/08 13:20:26;;;;;;;5.20;1.90;;;;;;;;;;5051452;28;20662;-69
2022/03/08 13:22:53;;;;;;;4.53;2.03;;;;;;;;;;5032585;28;20210;-70
2022/03/08 13:25:20;;;;;;;5.43;1.97;;;;;;;;;;5030367;28;20207;-70
2022/03/08 13:27:50;;;;;;;3.77;2.00;;;;;;;;;;5031717;28;20195;-70
2022/03/08 13:30:21;;;;;;;4.53;2.63;;;;;;;;;;5014142;28;20196;-70
2022/03/08 13:32:48;;;;;;;4.33;2.47;;;;;;;;;;5030983;28;20188;-70
2022/03/08 13:35:15;;;;;;;6.77;2.70;;;;;;;;;;5031916;28;20210;-70
2022/03/08 13:37:48;;;;;;;4.20;2.50;;;;;;;;;;5030282;28;20266;-69
2022/03/08 13:40:27;;;;;;;5.50;2.80;;;;;;;;;;5046625;28;20234;-69
2022/03/08 13:42:57;;;;;;;4.87;3.30;;;;;;;;;;5030174;28;20191;-69
2022/03/08 13:45:44;;;;;;;5.20;2.57;;;;;;;;;;5030368;28;20196;-69
2022/03/08 13:48:11;;;;;;;4.43;2.40;;;;;;;;;;5030170;28;20179;-70
2022/03/08 13:50:38;;;;;;;3.47;2.10;;;;;;;;;;5030591;28;20285;-69
2022/03/08 13:53:07;;;;;;;19.40;3.80;;;;;;;;;;5031391;28;20250;-69
2022/03/08 13:55:40;;;;;;;6.97;2.70;;;;;;;;;;5031406;28;20256;-69
2022/03/08 13:58:16;;;;;;;9.33;3.10;;;;;;;;;;5028832;28;20248;-68
2022/03/08 14:00:44;;;;;;;9.37;3.37;;;;;;;;;;5030666;28;20179;-68
2022/03/08 14:03:11;;;;;;;8.33;3.03;;;;;;;;;;5030025;28;20583;-68
2022/03/08 14:05:50;;;;;;;6.77;3.17;;;;;;;;;;5030342;28;20199;-68
2022/03/08 14:08:23;;;;;;;6.03;3.20;;;;;;;;;;5044554;28;20191;-68
2022/03/08 14:10:51;;;;;;;5.67;2.93;;;;;;;;;;5049962;28;20282;-68
2022/03/08 14:13:18;;;;;;;6.73;2.60;;;;;;;;;;5050767;28;20187;-67
2022/03/08 14:15:56;;;;;;;7.00;2.60;;;;;;;;;;5033325;28;20269;-68
2022/03/08 14:18:23;;;;;;;8.37;4.43;;;;;;;;;;5049366;28;20653;-68
2022/03/08 14:20:50;;;;;;;13.13;6.73;;;;;;;;;;5033471;28;20187;-68
2022/03/08 14:23:17;;;;;;;9.50;5.27;;;;;;;;;;5049502;28;20217;-68
2022/03/08 14:26:03;;;;;;;7.40;3.17;;;;;;;;;;5049481;28;20183;-68
2022/03/08 14:28:40;;;;;;;7.57;3.57;;;;;;;;;;5050698;28;20343;-68
2022/03/08 14:31:22;;;;;;;5.77;3.23;;;;;;;;;;5050470;28;20205;-68
2022/03/08 14:34:04;;;;;;;7.43;3.30;;;;;;;;;;5049223;28;20175;-67
2022/03/08 14:36:31;;;;;;;8.30;4.47;;;;;;;;;;5049320;28;20565;-68
2022/03/08 14:38:59;;;;;;;20.70;5.60;;;;;;;;;;5050595;28;20253;-67
2022/03/08 14:41:26;;;;;;;12.13;4.93;;;;;;;;;;5049252;28;20198;-67
2022/03/08 14:43:53;;;;;;;8.67;4.40;;;;;;;;;;5048862;28;20206;-67
2022/03/08 14:46:20;;;;;;;6.70;4.30;;;;;;;;;;5048516;28;20187;-68
2022/03/08 14:48:47;;;;;;;8.73;4.40;;;;;;;;;;5050229;28;20542;-67
2022/03/08 14:51:14;;;;;;;11.37;5.03;;;;;;;;;;5050146;28;20190;-67
2022/03/08 14:53:40;;;;;;;11.33;5.70;;;;;;;;;;5048900;28;20662;-67
2022/03/08 14:56:07;;;;;;;12.30;6.00;;;;;;;;;;5050136;28;20273;-67
2022/03/08 14:58:34;;;;;;;10.90;5.47;;;;;;;;;;5050083;28;20278;-67
2022/03/08 15:01:01;;;;;;;20.33;7.60;;;;;;;;;;5048360;28;20190;-67
2022/03/08 15:03:28;;;;;;;32.70;13.97;;;;;;;;;;5049941;28;20743;-67
2022/03/08 15:05:56;;;;;;;24.67;11.13;;;;;;;;;;5050268;28;20609;-68
2022/03/08 15:08:23;;;;;;;7.87;4.70;;;;;;;;;;5033637;28;20198;-68
2022/03/08 15:10:52;;;;;;;18.80;8.67;;;;;;;;;;5028624;28;20218;-68
2022/03/08 15:13:20;;;;;;;17.07;7.23;;;;;;;;;;5029714;28;20207;-68
2022/03/08 15:15:49;;;;;;;14.87;6.67;;;;;;;;;;5029481;28;20229;-68
2022/03/08 15:18:16;;;;;;;10.47;5.83;;;;;;;;;;5028584;28;20202;-68
2022/03/08 15:20:43;;;;;;;8.53;4.47;;;;;;;;;;5028752;28;20200;-69
2022/03/08 15:23:10;;;;;;;9.47;5.30;;;;;;;;;;5029633;28;20250;-68
2022/03/08 15:25:38;;;;;;;9.63;4.77;;;;;;;;;;5028715;28;20192;-69
2022/03/08 15:28:05;;;;;;;10.10;5.30;;;;;;;;;;5028401;28;20192;-68
2022/03/08 15:30:32;;;;;;;13.53;5.53;;;;;;;;;;5012036;28;20219;-69
2022/03/08 15:33:00;;;;;;;12.70;5.57;;;;;;;;;;5028427;28;20270;-69
2022/03/08 15:35:27;;;;;;;4.80;2.50;;;;;;;;;;5030050;28;20183;-69